createdAt,value
2022-12-24T00:00:04.491Z,7.05
2022-12-24T00:01:04.458Z,7.07
2022-12-24T00:02:04.610Z,7.16
2022-12-24T00:03:04.606Z,7.22
2022-12-24T00:04:04.469Z,7.07
2022-12-24T00:05:04.426Z,7.20
2022-12-24T00:06:04.410Z,7.17
2022-12-24T00:07:04.395Z,7.22
2022-12-24T00:08:04.395Z,7.22
2022-12-24T00:09:04.396Z,7.07
2022-12-24T00:10:04.366Z,7.19
2022-12-24T00:11:04.355Z,7.24
2022-12-24T00:12:04.339Z,7.24
2022-12-24T00:13:04.349Z,7.20
2022-12-24T00:14:04.329Z,7.19
2022-12-24T00:15:04.315Z,7.19
2022-12-24T00:16:04.369Z,7.15
2022-12-24T00:17:04.386Z,7.15
2022-12-24T00:18:04.306Z,7.20
2022-12-24T00:19:04.274Z,7.19
2022-12-24T00:20:04.261Z,7.19
2022-12-24T00:21:04.252Z,7.15
2022-12-24T00:22:04.234Z,7.08
2022-12-24T00:23:04.234Z,7.20
2022-12-24T00:24:04.210Z,7.15
2022-12-24T00:25:04.199Z,7.19
2022-12-24T00:26:04.188Z,7.20
2022-12-24T00:27:04.179Z,7.19
2022-12-24T00:28:04.177Z,7.16
2022-12-24T00:29:04.173Z,7.15
2022-12-24T00:30:04.141Z,7.09
2022-12-24T00:31:04.206Z,7.15
2022-12-24T00:32:04.125Z,7.17
2022-12-24T00:33:04.134Z,7.20
2022-12-24T00:34:04.120Z,7.02
2022-12-24T00:35:04.108Z,7.09
2022-12-24T00:36:04.103Z,7.20
2022-12-24T00:37:04.069Z,7.12
2022-12-24T00:38:04.076Z,7.08
2022-12-24T00:39:04.047Z,7.07
2022-12-24T00:40:04.035Z,7.13
2022-12-24T00:41:04.045Z,7.01
2022-12-24T00:42:04.016Z,7.08
2022-12-24T00:43:04.026Z,6.98
2022-12-24T00:44:03.994Z,7.02
2022-12-24T00:45:03.982Z,7.01
2022-12-24T00:46:04.037Z,6.99
2022-12-24T00:47:08.358Z,7.05
2022-12-24T00:48:04.958Z,7.07
2022-12-24T00:49:03.962Z,7.08
2022-12-24T00:50:03.947Z,7.01
2022-12-24T00:51:03.975Z,6.97
2022-12-24T00:52:03.909Z,6.99
2022-12-24T00:53:03.904Z,7.01
2022-12-24T00:54:03.894Z,7.07
2022-12-24T00:55:03.881Z,7.07
2022-12-24T00:56:03.869Z,7.07
2022-12-24T00:57:03.854Z,7.09
2022-12-24T00:58:03.851Z,7.08
2022-12-24T00:59:03.842Z,7.17
2022-12-24T01:00:03.820Z,7.07
2022-12-24T01:01:03.863Z,7.07
2022-12-24T01:02:04.089Z,7.04
2022-12-24T01:03:03.894Z,7.09
2022-12-24T01:04:03.777Z,7.08
2022-12-24T01:05:03.764Z,7.08
2022-12-24T01:06:03.775Z,7.22
2022-12-24T01:07:03.748Z,7.15
2022-12-24T01:08:03.745Z,7.07
2022-12-24T01:09:03.722Z,7.12
2022-12-24T01:10:03.713Z,7.09
2022-12-24T01:11:03.700Z,7.12
2022-12-24T01:12:03.686Z,7.08
2022-12-24T01:13:03.694Z,7.12
2022-12-24T01:14:03.674Z,7.04
2022-12-24T01:15:03.659Z,7.08
2022-12-24T01:16:03.733Z,7.07
2022-12-24T01:17:03.636Z,7.08
2022-12-24T01:18:03.638Z,7.02
2022-12-24T01:19:03.612Z,7.07
2022-12-24T01:20:03.604Z,7.08
2022-12-24T01:21:03.595Z,7.12
2022-12-24T01:22:03.597Z,7.12
2022-12-24T01:23:03.581Z,7.13
2022-12-24T01:24:03.581Z,7.05
2022-12-24T01:25:03.551Z,7.07
2022-12-24T01:26:03.535Z,7.05
2022-12-24T01:27:03.528Z,6.86
2022-12-24T01:28:03.527Z,6.99
2022-12-24T01:29:03.514Z,7.04
2022-12-24T01:30:03.497Z,7.07
2022-12-24T01:31:03.558Z,7.02
2022-12-24T01:32:03.471Z,7.07
2022-12-24T01:33:03.480Z,7.08
2022-12-24T01:34:03.451Z,7.09
2022-12-24T01:35:03.445Z,7.07
2022-12-24T01:36:03.429Z,7.02
2022-12-24T01:37:03.431Z,7.09
2022-12-24T01:38:03.434Z,7.09
2022-12-24T01:39:03.398Z,7.08
2022-12-24T01:40:03.401Z,7.20
2022-12-24T01:41:03.372Z,7.09
2022-12-24T01:42:03.361Z,7.23
2022-12-24T01:43:03.374Z,7.19
2022-12-24T01:44:03.343Z,7.20
2022-12-24T01:45:03.330Z,7.20
2022-12-24T01:46:03.403Z,7.07
2022-12-24T01:47:03.405Z,7.20
2022-12-24T01:48:03.305Z,7.08
2022-12-24T01:49:03.298Z,7.07
2022-12-24T01:50:03.278Z,7.08
2022-12-24T01:51:03.275Z,7.23
2022-12-24T01:52:03.274Z,7.24
2022-12-24T01:53:03.243Z,7.20
2022-12-24T01:54:03.262Z,7.19
2022-12-24T01:55:03.228Z,7.17
2022-12-24T01:56:03.214Z,7.24
2022-12-24T01:57:03.208Z,7.22
2022-12-24T01:58:03.194Z,7.27
2022-12-24T01:59:03.183Z,7.31
2022-12-24T02:00:03.175Z,7.31
2022-12-24T02:01:03.205Z,7.31
2022-12-24T02:02:03.264Z,7.37
2022-12-24T02:03:03.238Z,7.34
2022-12-24T02:04:03.137Z,7.32
2022-12-24T02:05:03.156Z,7.40
2022-12-24T02:06:03.105Z,7.31
2022-12-24T02:07:03.093Z,7.34
2022-12-24T02:08:03.108Z,7.37
2022-12-24T02:09:03.096Z,7.47
2022-12-24T02:10:03.132Z,7.45
2022-12-24T02:11:03.049Z,7.50
2022-12-24T02:12:03.041Z,7.47
2022-12-24T02:13:03.027Z,7.41
2022-12-24T02:14:03.077Z,7.44
2022-12-24T02:15:03.019Z,7.32
2022-12-24T02:16:03.083Z,7.38
2022-12-24T02:17:02.991Z,7.40
2022-12-24T02:18:02.984Z,7.45
2022-12-24T02:19:02.979Z,7.49
2022-12-24T02:20:02.988Z,7.42
2022-12-24T02:21:02.944Z,7.41
2022-12-24T02:22:02.938Z,7.47
2022-12-24T02:23:02.921Z,7.45
2022-12-24T02:24:02.971Z,7.49
2022-12-24T02:25:02.898Z,7.45
2022-12-24T02:26:02.917Z,7.55
2022-12-24T02:27:02.921Z,7.45
2022-12-24T02:28:02.894Z,7.52
2022-12-24T02:29:02.883Z,7.49
2022-12-24T02:30:02.878Z,7.49
2022-12-24T02:31:02.870Z,7.53
2022-12-24T02:32:02.825Z,7.49
2022-12-24T02:33:02.832Z,7.55
2022-12-24T02:34:02.834Z,7.58
2022-12-24T02:35:02.826Z,7.56
2022-12-24T02:36:02.781Z,7.53
2022-12-24T02:37:02.773Z,7.53
2022-12-24T02:38:02.759Z,7.55
2022-12-24T02:39:02.760Z,7.56
2022-12-24T02:40:02.849Z,7.53
2022-12-24T02:41:02.738Z,7.53
2022-12-24T02:42:02.744Z,7.53
2022-12-24T02:43:02.709Z,7.55
2022-12-24T02:44:02.708Z,7.49
2022-12-24T02:45:02.833Z,7.53
2022-12-24T02:46:02.674Z,7.55
2022-12-24T02:47:02.747Z,7.37
2022-12-24T02:48:02.656Z,7.34
2022-12-24T02:49:02.656Z,7.32
2022-12-24T02:50:02.706Z,7.34
2022-12-24T02:51:02.623Z,7.41
2022-12-24T02:52:02.610Z,7.44
2022-12-24T02:53:02.612Z,7.49
2022-12-24T02:54:02.609Z,7.45
2022-12-24T02:55:02.699Z,7.42
2022-12-24T02:56:02.567Z,7.42
2022-12-24T02:57:02.571Z,7.45
2022-12-24T02:58:02.562Z,7.45
2022-12-24T02:59:02.547Z,7.41
2022-12-24T03:00:02.691Z,7.47
2022-12-24T03:01:02.626Z,7.47
2022-12-24T03:02:02.588Z,7.44
2022-12-24T03:03:02.532Z,7.49
2022-12-24T03:04:02.495Z,7.44
2022-12-24T03:05:02.477Z,7.44
2022-12-24T03:06:02.467Z,7.38
2022-12-24T03:07:02.457Z,7.37
2022-12-24T03:08:02.440Z,7.35
2022-12-24T03:09:02.437Z,7.40
2022-12-24T03:10:02.415Z,7.38
2022-12-24T03:11:02.463Z,7.35
2022-12-24T03:12:02.406Z,7.40
2022-12-24T03:13:02.382Z,7.38
2022-12-24T03:14:02.408Z,7.38
2022-12-24T03:15:02.367Z,7.31
2022-12-24T03:16:02.408Z,7.20
2022-12-24T03:17:02.339Z,7.37
2022-12-24T03:18:02.327Z,7.35
2022-12-24T03:19:02.333Z,7.24
2022-12-24T03:20:02.307Z,7.31
2022-12-24T03:21:02.296Z,7.31
2022-12-24T03:22:02.302Z,7.27
2022-12-24T03:23:02.290Z,7.20
2022-12-24T03:24:02.285Z,7.29
2022-12-24T03:25:02.256Z,7.23
2022-12-24T03:26:02.261Z,7.20
2022-12-24T03:27:02.236Z,7.20
2022-12-24T03:28:02.249Z,7.16
2022-12-24T03:29:02.221Z,7.19
2022-12-24T03:30:02.260Z,7.13
2022-12-24T03:31:02.251Z,7.13
2022-12-24T03:32:02.381Z,7.07
2022-12-24T03:33:02.163Z,7.05
2022-12-24T03:34:02.174Z,7.12
2022-12-24T03:35:02.167Z,7.09
2022-12-24T03:36:02.157Z,7.09
2022-12-24T03:37:02.136Z,7.23
2022-12-24T03:38:02.113Z,7.20
2022-12-24T03:39:02.112Z,7.17
2022-12-24T03:40:02.108Z,7.19
2022-12-24T03:41:02.079Z,7.16
2022-12-24T03:42:02.070Z,7.20
2022-12-24T03:43:02.058Z,7.19
2022-12-24T03:44:02.062Z,7.07
2022-12-24T03:45:02.039Z,7.22
2022-12-24T03:46:02.100Z,7.22
2022-12-24T03:47:02.016Z,7.23
2022-12-24T03:48:02.008Z,7.24
2022-12-24T03:49:02.011Z,7.19
2022-12-24T03:50:01.985Z,7.31
2022-12-24T03:51:01.973Z,7.22
2022-12-24T03:52:01.968Z,7.22
2022-12-24T03:53:01.954Z,7.22
2022-12-24T03:54:01.961Z,7.16
2022-12-24T03:55:01.928Z,7.08
2022-12-24T03:56:01.926Z,7.12
2022-12-24T03:57:01.917Z,7.01
2022-12-24T03:58:01.896Z,6.91
2022-12-24T03:59:01.901Z,6.87
2022-12-24T04:00:01.876Z,6.94
2022-12-24T04:01:02.110Z,6.95
2022-12-24T04:02:02.121Z,6.95
2022-12-24T04:03:01.991Z,6.94
2022-12-24T04:04:01.850Z,6.84
2022-12-24T04:05:01.832Z,6.86
2022-12-24T04:06:01.812Z,6.91
2022-12-24T04:07:01.804Z,6.87
2022-12-24T04:08:01.793Z,6.87
2022-12-24T04:09:01.791Z,6.94
2022-12-24T04:10:01.772Z,6.95
2022-12-24T04:11:07.710Z,6.89
2022-12-24T04:12:02.754Z,6.97
2022-12-24T04:13:01.783Z,6.89
2022-12-24T04:14:01.738Z,6.91
2022-12-24T04:15:01.713Z,6.89
2022-12-24T04:16:01.753Z,6.95
2022-12-24T04:17:01.747Z,6.87
2022-12-24T04:18:01.710Z,6.84
2022-12-24T04:19:01.701Z,6.98
2022-12-24T04:20:01.668Z,6.90
2022-12-24T04:21:01.648Z,6.97
2022-12-24T04:22:01.744Z,6.91
2022-12-24T04:23:01.626Z,6.95
2022-12-24T04:24:01.641Z,6.91
2022-12-24T04:25:01.614Z,7.01
2022-12-24T04:26:01.600Z,6.98
2022-12-24T04:27:01.595Z,7.04
2022-12-24T04:28:01.587Z,6.94
2022-12-24T04:29:01.581Z,6.91
2022-12-24T04:30:01.632Z,6.95
2022-12-24T04:31:01.575Z,6.94
2022-12-24T04:32:01.740Z,6.94
2022-12-24T04:33:01.525Z,6.90
2022-12-24T04:34:01.539Z,6.89
2022-12-24T04:35:01.499Z,7.07
2022-12-24T04:36:01.490Z,7.04
2022-12-24T04:37:01.495Z,7.08
2022-12-24T04:38:01.466Z,7.13
2022-12-24T04:39:01.472Z,7.12
2022-12-24T04:40:01.466Z,7.04
2022-12-24T04:41:01.453Z,7.09
2022-12-24T04:42:01.424Z,7.07
2022-12-24T04:43:01.418Z,7.05
2022-12-24T04:44:01.413Z,7.01
2022-12-24T04:45:01.391Z,6.98
2022-12-24T04:46:01.431Z,6.94
2022-12-24T04:47:01.370Z,6.94
2022-12-24T04:48:01.360Z,6.83
2022-12-24T04:49:01.363Z,6.98
2022-12-24T04:50:01.372Z,6.89
2022-12-24T04:51:01.351Z,6.97
2022-12-24T04:52:01.327Z,6.89
2022-12-24T04:53:01.319Z,6.89
2022-12-24T04:54:01.301Z,6.89
2022-12-24T04:55:01.290Z,6.97
2022-12-24T04:56:01.282Z,6.90
2022-12-24T04:57:01.307Z,6.97
2022-12-24T04:58:01.262Z,6.98
2022-12-24T04:59:01.259Z,6.99
2022-12-24T05:00:01.235Z,7.01
2022-12-24T05:01:01.305Z,6.99
2022-12-24T05:02:01.386Z,6.90
2022-12-24T05:03:01.245Z,6.89
2022-12-24T05:04:01.200Z,6.94
2022-12-24T05:05:01.180Z,6.90
2022-12-24T05:06:01.669Z,6.91
2022-12-24T05:07:01.157Z,6.87
2022-12-24T05:08:01.146Z,6.87
2022-12-24T05:09:01.159Z,6.87
2022-12-24T05:10:01.129Z,6.89
2022-12-24T05:11:01.173Z,6.83
2022-12-24T05:12:01.106Z,6.91
2022-12-24T05:13:01.092Z,6.89
2022-12-24T05:14:01.097Z,7.01
2022-12-24T05:15:01.069Z,6.94
2022-12-24T05:16:01.059Z,6.95
2022-12-24T05:17:01.108Z,6.91
2022-12-24T05:18:01.038Z,6.86
2022-12-24T05:19:01.042Z,6.99
2022-12-24T05:20:01.021Z,6.99
2022-12-24T05:21:01.007Z,6.91
2022-12-24T05:22:01.025Z,6.97
2022-12-24T05:23:00.988Z,6.99
2022-12-24T05:24:00.992Z,6.95
2022-12-24T05:25:02.485Z,6.94
2022-12-24T05:26:00.953Z,7.07
2022-12-24T05:27:00.943Z,6.98
2022-12-24T05:28:00.948Z,7.02
2022-12-24T05:29:00.988Z,6.95
2022-12-24T05:30:00.929Z,6.91
2022-12-24T05:31:00.938Z,6.90
2022-12-24T05:32:00.888Z,6.81
2022-12-24T05:33:00.877Z,6.68
2022-12-24T05:34:00.878Z,6.66
2022-12-24T05:35:00.922Z,6.71
2022-12-24T05:36:00.861Z,6.72
2022-12-24T05:37:00.839Z,6.63
2022-12-24T05:38:00.842Z,6.65
2022-12-24T05:39:00.820Z,6.69
2022-12-24T05:40:00.846Z,6.81
2022-12-24T05:41:00.790Z,6.81
2022-12-24T05:42:00.786Z,6.79
2022-12-24T05:43:00.768Z,6.86
2022-12-24T05:44:00.760Z,6.73
2022-12-24T05:45:00.768Z,6.80
2022-12-24T05:46:00.836Z,6.80
2022-12-24T05:47:00.726Z,6.79
2022-12-24T05:48:00.719Z,6.77
2022-12-24T05:49:00.704Z,6.77
2022-12-24T05:50:00.717Z,6.77
2022-12-24T05:51:00.704Z,6.79
2022-12-24T05:52:00.675Z,6.76
2022-12-24T05:53:00.662Z,6.83
2022-12-24T05:54:00.709Z,6.77
2022-12-24T05:55:00.658Z,6.76
2022-12-24T05:56:00.634Z,6.86
2022-12-24T05:57:00.621Z,6.84
2022-12-24T05:58:00.607Z,6.80
2022-12-24T05:59:00.601Z,6.79
2022-12-24T06:00:00.608Z,6.84
2022-12-24T06:01:00.576Z,6.89
2022-12-24T06:02:00.748Z,6.89
2022-12-24T06:03:00.613Z,6.94
2022-12-24T06:04:00.630Z,6.83
2022-12-24T06:05:00.638Z,6.83
2022-12-24T06:06:00.523Z,6.84
2022-12-24T06:07:00.511Z,6.87
2022-12-24T06:08:00.503Z,6.80
2022-12-24T06:09:00.490Z,6.83
2022-12-24T06:10:00.518Z,6.86
2022-12-24T06:11:00.473Z,6.80
2022-12-24T06:12:00.461Z,6.86
2022-12-24T06:13:00.446Z,6.86
2022-12-24T06:14:00.444Z,6.86
2022-12-24T06:15:00.439Z,6.73
2022-12-24T06:16:00.522Z,6.80
2022-12-24T06:17:00.403Z,6.81
2022-12-24T06:18:00.392Z,6.80
2022-12-24T06:19:00.406Z,6.73
2022-12-24T06:20:00.382Z,6.79
2022-12-24T06:21:00.359Z,6.66
2022-12-24T06:22:00.350Z,6.71
2022-12-24T06:23:00.340Z,6.63
2022-12-24T06:24:00.331Z,6.56
2022-12-24T06:25:00.374Z,6.59
2022-12-24T06:26:00.322Z,6.61
2022-12-24T06:27:00.309Z,6.62
2022-12-24T06:28:00.281Z,6.51
2022-12-24T06:29:00.282Z,6.38
2022-12-24T06:30:00.277Z,6.35
2022-12-24T06:31:02.938Z,6.41
2022-12-24T06:32:00.334Z,6.38
2022-12-24T06:33:00.230Z,6.35
2022-12-24T06:34:00.222Z,6.32
2022-12-24T06:35:00.225Z,6.46
2022-12-24T06:36:00.199Z,6.51
2022-12-24T06:37:00.186Z,6.50
2022-12-24T06:38:00.173Z,6.54
2022-12-24T06:39:00.171Z,6.40
2022-12-24T06:40:00.201Z,6.47
2022-12-24T06:41:00.142Z,6.44
2022-12-24T06:42:00.177Z,6.56
2022-12-24T06:43:00.157Z,6.63
2022-12-24T06:44:00.111Z,6.61
2022-12-24T06:45:07.467Z,6.69
2022-12-24T06:46:01.145Z,6.68
2022-12-24T06:47:00.196Z,6.79
2022-12-24T06:48:00.103Z,6.87
2022-12-24T06:49:00.059Z,6.77
2022-12-24T06:50:00.061Z,6.77
2022-12-24T06:51:00.038Z,6.81
2022-12-24T06:52:00.032Z,6.80
2022-12-24T06:53:00.017Z,6.73
2022-12-24T06:54:00.016Z,6.84
2022-12-24T06:54:59.999Z,6.79
2022-12-24T06:55:59.977Z,6.80
2022-12-24T06:56:59.968Z,6.81
2022-12-24T06:58:00.003Z,6.81
2022-12-24T06:59:05.058Z,6.80
2022-12-24T07:00:00.979Z,6.77
2022-12-24T07:00:59.926Z,6.80
2022-12-24T07:02:00.082Z,6.79
2022-12-24T07:02:59.961Z,6.63
2022-12-24T07:03:59.964Z,6.61
2022-12-24T07:04:59.912Z,6.47
2022-12-24T07:05:59.874Z,6.53
2022-12-24T07:06:59.861Z,6.53
2022-12-24T07:07:59.849Z,6.50
2022-12-24T07:08:59.843Z,6.50
2022-12-24T07:09:59.841Z,6.54
2022-12-24T07:10:59.816Z,6.53
2022-12-24T07:11:59.809Z,6.53
2022-12-24T07:12:59.795Z,6.41
2022-12-24T07:13:59.804Z,6.41
2022-12-24T07:14:59.783Z,6.40
2022-12-24T07:15:59.885Z,6.36
2022-12-24T07:16:59.877Z,6.33
2022-12-24T07:17:59.742Z,6.38
2022-12-24T07:18:59.734Z,6.29
2022-12-24T07:19:59.731Z,6.30
2022-12-24T07:20:59.706Z,6.33
2022-12-24T07:21:59.697Z,6.32
2022-12-24T07:22:59.684Z,6.30
2022-12-24T07:23:59.682Z,6.26
2022-12-24T07:24:59.675Z,6.35
2022-12-24T07:25:59.650Z,6.41
2022-12-24T07:26:59.669Z,6.38
2022-12-24T07:27:59.627Z,6.38
2022-12-24T07:28:59.621Z,6.56
2022-12-24T07:29:59.653Z,6.53
2022-12-24T07:30:59.669Z,6.46
2022-12-24T07:31:59.629Z,6.43
2022-12-24T07:32:59.577Z,6.35
2022-12-24T07:33:59.565Z,6.28
2022-12-24T07:34:59.570Z,6.29
2022-12-24T07:35:59.542Z,6.30
2022-12-24T07:36:59.533Z,6.29
2022-12-24T07:37:59.533Z,6.30
2022-12-24T07:38:59.511Z,6.38
2022-12-24T07:39:59.518Z,6.35
2022-12-24T07:40:59.488Z,6.50
2022-12-24T07:41:59.481Z,6.61
2022-12-24T07:42:59.466Z,6.66
2022-12-24T07:43:59.455Z,6.59
2022-12-24T07:44:59.458Z,6.61
2022-12-24T07:45:59.455Z,6.65
2022-12-24T07:46:59.483Z,6.48
2022-12-24T07:47:59.418Z,6.54
2022-12-24T07:48:59.399Z,6.65
2022-12-24T07:49:59.401Z,6.62
2022-12-24T07:50:59.383Z,6.69
2022-12-24T07:51:59.396Z,6.71
2022-12-24T07:52:59.362Z,6.77
2022-12-24T07:53:59.367Z,6.79
2022-12-24T07:54:59.347Z,6.81
2022-12-24T07:55:59.322Z,6.90
2022-12-24T07:56:59.322Z,6.90
2022-12-24T07:57:59.310Z,6.87
2022-12-24T07:58:59.310Z,6.94
2022-12-24T07:59:59.310Z,6.95
2022-12-24T08:00:59.296Z,6.99
2022-12-24T08:01:59.469Z,7.04
2022-12-24T08:02:59.472Z,7.07
2022-12-24T08:03:59.314Z,7.05
2022-12-24T08:04:59.241Z,7.08
2022-12-24T08:05:59.216Z,7.04
2022-12-24T08:06:59.209Z,7.07
2022-12-24T08:07:59.220Z,7.12
2022-12-24T08:08:59.194Z,7.08
2022-12-24T08:09:59.203Z,7.07
2022-12-24T08:10:59.184Z,7.04
2022-12-24T08:11:59.151Z,7.04
2022-12-24T08:12:59.142Z,7.09
2022-12-24T08:13:59.137Z,7.08
2022-12-24T08:14:59.131Z,7.09
2022-12-24T08:15:59.184Z,6.90
2022-12-24T08:16:59.105Z,6.90
2022-12-24T08:17:59.116Z,6.91
2022-12-24T08:18:59.098Z,6.91
2022-12-24T08:19:59.154Z,6.91
2022-12-24T08:20:59.096Z,6.89
2022-12-24T08:21:59.056Z,7.01
2022-12-24T08:22:59.038Z,7.07
2022-12-24T08:23:59.023Z,7.08
2022-12-24T08:24:59.031Z,7.04
2022-12-24T08:25:59.005Z,7.05
2022-12-24T08:26:58.994Z,7.05
2022-12-24T08:27:58.980Z,7.12
2022-12-24T08:28:58.979Z,7.09
2022-12-24T08:29:59.038Z,7.13
2022-12-24T08:30:58.951Z,7.22
2022-12-24T08:31:58.982Z,7.26
2022-12-24T08:32:58.932Z,7.19
2022-12-24T08:33:58.931Z,7.05
2022-12-24T08:34:58.926Z,7.09
2022-12-24T08:35:58.898Z,7.15
2022-12-24T08:36:58.881Z,7.08
2022-12-24T08:37:58.884Z,7.19
2022-12-24T08:38:58.864Z,7.07
2022-12-24T08:39:58.854Z,7.05
2022-12-24T08:40:58.861Z,7.08
2022-12-24T08:41:58.925Z,7.20
2022-12-24T08:42:58.855Z,7.16
2022-12-24T08:43:58.807Z,7.07
2022-12-24T08:44:58.805Z,7.07
2022-12-24T08:45:58.883Z,7.09
2022-12-24T08:46:58.776Z,7.12
2022-12-24T08:47:58.772Z,7.09
2022-12-24T08:48:58.759Z,7.09
2022-12-24T08:49:58.762Z,7.22
2022-12-24T08:50:58.751Z,7.15
2022-12-24T08:51:58.721Z,7.17
2022-12-24T08:52:58.713Z,7.20
2022-12-24T08:53:58.717Z,7.07
2022-12-24T08:54:58.695Z,7.02
2022-12-24T08:55:58.691Z,7.13
2022-12-24T08:56:58.673Z,7.05
2022-12-24T08:57:58.656Z,7.07
2022-12-24T08:58:58.647Z,7.16
2022-12-24T08:59:58.640Z,7.26
2022-12-24T09:00:58.733Z,7.22
2022-12-24T09:01:58.892Z,7.24
2022-12-24T09:02:58.808Z,7.19
2022-12-24T09:03:58.593Z,7.34
2022-12-24T09:04:58.585Z,7.38
2022-12-24T09:05:58.626Z,7.31
2022-12-24T09:06:58.562Z,7.32
2022-12-24T09:07:58.550Z,7.35
2022-12-24T09:08:58.540Z,7.37
2022-12-24T09:09:58.528Z,7.45
2022-12-24T09:10:58.534Z,7.44
2022-12-24T09:11:58.508Z,7.38
2022-12-24T09:12:58.510Z,7.37
2022-12-24T09:13:58.492Z,7.32
2022-12-24T09:15:03.465Z,7.29
2022-12-24T09:15:59.476Z,7.04
2022-12-24T09:16:58.487Z,7.12
2022-12-24T09:17:58.453Z,7.07
2022-12-24T09:18:58.436Z,6.97
2022-12-24T09:19:58.422Z,7.02
2022-12-24T09:20:58.431Z,6.98
2022-12-24T09:21:58.421Z,7.08
2022-12-24T09:22:58.390Z,7.12
2022-12-24T09:23:58.380Z,7.19
2022-12-24T09:24:58.368Z,7.20
2022-12-24T09:25:58.376Z,7.19
2022-12-24T09:26:58.374Z,7.29
2022-12-24T09:27:58.337Z,7.32
2022-12-24T09:28:58.324Z,7.32
2022-12-24T09:29:58.318Z,7.47
2022-12-24T09:30:58.316Z,7.47
2022-12-24T09:31:58.354Z,7.47
2022-12-24T09:32:58.285Z,7.52
2022-12-24T09:33:58.272Z,7.42
2022-12-24T09:34:58.275Z,7.47
2022-12-24T09:35:58.310Z,7.49
2022-12-24T09:36:58.238Z,7.47
2022-12-24T09:37:58.249Z,7.55
2022-12-24T09:38:58.217Z,7.53
2022-12-24T09:39:58.208Z,7.55
2022-12-24T09:41:01.167Z,7.52
2022-12-24T09:41:59.209Z,7.69
2022-12-24T09:42:58.176Z,7.74
2022-12-24T09:43:58.159Z,7.74
2022-12-24T09:44:58.168Z,7.72
2022-12-24T09:45:58.195Z,7.71
2022-12-24T09:46:58.137Z,7.69
2022-12-24T09:47:58.139Z,7.75
2022-12-24T09:48:58.112Z,7.77
2022-12-24T09:49:58.099Z,7.71
2022-12-24T09:50:58.096Z,7.81
2022-12-24T09:51:58.076Z,7.77
2022-12-24T09:52:58.066Z,7.84
2022-12-24T09:53:58.074Z,7.89
2022-12-24T09:54:58.046Z,7.87
2022-12-24T09:55:58.053Z,7.89
2022-12-24T09:56:58.024Z,7.87
2022-12-24T09:57:58.018Z,7.89
2022-12-24T09:58:58.006Z,7.94
2022-12-24T09:59:57.989Z,7.92
2022-12-24T10:00:58.059Z,8.00
2022-12-24T10:01:58.181Z,7.97
2022-12-24T10:02:58.104Z,7.96
2022-12-24T10:03:57.949Z,8.00
2022-12-24T10:04:57.947Z,8.02
2022-12-24T10:05:57.942Z,8.03
2022-12-24T10:06:57.915Z,8.00
2022-12-24T10:07:57.905Z,7.97
2022-12-24T10:08:57.898Z,7.94
2022-12-24T10:09:57.897Z,8.00
2022-12-24T10:10:57.877Z,8.08
2022-12-24T10:11:57.860Z,8.03
2022-12-24T10:12:57.849Z,8.03
2022-12-24T10:13:57.841Z,8.04
2022-12-24T10:14:57.831Z,8.02
2022-12-24T10:15:57.835Z,8.07
2022-12-24T10:16:57.946Z,8.00
2022-12-24T10:17:57.801Z,8.08
2022-12-24T10:18:57.786Z,8.10
2022-12-24T10:19:57.776Z,8.10
2022-12-24T10:20:57.776Z,8.17
2022-12-24T10:21:57.754Z,8.17
2022-12-24T10:22:57.745Z,8.17
2022-12-24T10:23:57.730Z,8.18
2022-12-24T10:24:57.722Z,8.21
2022-12-24T10:25:57.739Z,8.22
2022-12-24T10:26:57.699Z,8.25
2022-12-24T10:27:57.688Z,8.21
2022-12-24T10:28:57.678Z,8.28
2022-12-24T10:29:57.670Z,8.28
2022-12-24T10:30:57.756Z,8.35
2022-12-24T10:31:57.643Z,8.39
2022-12-24T10:32:57.631Z,8.35
2022-12-24T10:33:57.630Z,8.40
2022-12-24T10:34:57.611Z,8.36
2022-12-24T10:35:57.618Z,8.48
2022-12-24T10:36:57.589Z,8.39
2022-12-24T10:37:57.577Z,8.48
2022-12-24T10:38:57.568Z,8.51
2022-12-24T10:39:57.558Z,8.50
2022-12-24T10:40:57.555Z,8.42
2022-12-24T10:41:57.558Z,8.48
2022-12-24T10:42:57.524Z,8.53
2022-12-24T10:43:57.513Z,8.57
2022-12-24T10:44:57.504Z,8.51
2022-12-24T10:45:57.653Z,8.57
2022-12-24T10:46:57.494Z,8.60
2022-12-24T10:47:57.476Z,8.48
2022-12-24T10:48:57.455Z,8.44
2022-12-24T10:49:57.447Z,8.45
2022-12-24T10:50:57.448Z,8.57
2022-12-24T10:51:57.424Z,8.55
2022-12-24T10:52:57.410Z,8.53
2022-12-24T10:53:57.400Z,8.48
2022-12-24T10:54:57.385Z,8.54
2022-12-24T10:55:57.387Z,8.58
2022-12-24T10:56:57.385Z,8.69
2022-12-24T10:57:57.403Z,8.54
2022-12-24T10:58:57.343Z,8.57
2022-12-24T10:59:57.385Z,8.60
2022-12-24T11:00:57.444Z,8.69
2022-12-24T11:01:57.559Z,8.69
2022-12-24T11:02:57.460Z,8.69
2022-12-24T11:03:57.290Z,8.63
2022-12-24T11:04:57.281Z,8.72
2022-12-24T11:05:57.307Z,8.72
2022-12-24T11:06:57.261Z,8.69
2022-12-24T11:07:57.247Z,8.79
2022-12-24T11:08:57.238Z,8.73
2022-12-24T11:09:57.229Z,8.73
2022-12-24T11:10:57.227Z,8.75
2022-12-24T11:11:57.201Z,8.75
2022-12-24T11:13:27.864Z,8.71
2022-12-24T11:13:58.193Z,8.71
2022-12-24T11:14:57.173Z,8.81
2022-12-24T11:15:57.217Z,8.76
2022-12-24T11:16:57.149Z,8.71
2022-12-24T11:17:57.133Z,8.81
2022-12-24T11:18:57.125Z,8.73
2022-12-24T11:19:57.112Z,8.78
2022-12-24T11:20:57.111Z,8.73
2022-12-24T11:21:57.090Z,8.66
2022-12-24T11:22:57.081Z,8.81
2022-12-24T11:23:57.066Z,8.81
2022-12-24T11:24:58.500Z,8.87
2022-12-24T11:25:57.076Z,8.84
2022-12-24T11:26:57.035Z,8.87
2022-12-24T11:27:57.028Z,8.81
2022-12-24T11:28:57.009Z,8.91
2022-12-24T11:30:00.123Z,8.90
2022-12-24T11:30:57.043Z,8.90
2022-12-24T11:31:56.980Z,8.94
2022-12-24T11:32:56.971Z,8.93
2022-12-24T11:33:56.955Z,8.96
2022-12-24T11:34:56.948Z,8.97
2022-12-24T11:35:56.958Z,8.96
2022-12-24T11:36:56.935Z,9.05
2022-12-24T11:37:56.912Z,9.09
2022-12-24T11:38:56.900Z,9.04
2022-12-24T11:39:56.892Z,9.09
2022-12-24T11:40:56.887Z,9.15
2022-12-24T11:41:56.884Z,9.16
2022-12-24T11:42:56.856Z,9.16
2022-12-24T11:43:56.847Z,9.13
2022-12-24T11:44:56.843Z,9.15
2022-12-24T11:45:56.970Z,9.24
2022-12-24T11:46:57.147Z,9.18
2022-12-24T11:47:56.803Z,9.20
2022-12-24T11:48:58.405Z,9.18
2022-12-24T11:50:12.913Z,9.23
2022-12-24T11:50:57.787Z,9.30
2022-12-24T11:51:56.771Z,9.18
2022-12-24T11:52:56.746Z,9.18
2022-12-24T11:53:56.738Z,9.15
2022-12-24T11:54:56.730Z,9.25
2022-12-24T11:55:56.738Z,9.12
2022-12-24T11:56:56.714Z,9.12
2022-12-24T11:57:56.693Z,9.16
2022-12-24T11:58:56.680Z,9.16
2022-12-24T11:59:56.678Z,9.09
2022-12-24T12:00:56.660Z,9.15
2022-12-24T12:01:56.773Z,9.20
2022-12-24T12:02:56.924Z,9.20
2022-12-24T12:03:56.664Z,9.23
2022-12-24T12:04:56.625Z,9.23
2022-12-24T12:05:56.608Z,9.20
2022-12-24T12:06:56.613Z,9.32
2022-12-24T12:07:56.584Z,9.27
2022-12-24T12:08:56.573Z,9.30
2022-12-24T12:09:56.564Z,9.27
2022-12-24T12:10:56.560Z,9.32
2022-12-24T12:11:56.547Z,9.30
2022-12-24T12:12:56.531Z,9.42
2022-12-24T12:13:56.532Z,9.31
2022-12-24T12:14:56.509Z,9.35
2022-12-24T12:15:56.529Z,9.48
2022-12-24T12:16:56.499Z,9.50
2022-12-24T12:17:56.494Z,9.43
2022-12-24T12:18:56.462Z,9.43
2022-12-24T12:19:56.456Z,9.61
2022-12-24T12:20:56.453Z,9.58
2022-12-24T12:21:56.448Z,9.57
2022-12-24T12:22:56.438Z,9.61
2022-12-24T12:23:56.442Z,9.60
2022-12-24T12:24:56.398Z,9.58
2022-12-24T12:25:56.391Z,9.64
2022-12-24T12:26:56.389Z,9.57
2022-12-24T12:27:56.371Z,9.60
2022-12-24T12:28:56.361Z,9.60
2022-12-24T12:29:56.347Z,9.60
2022-12-24T12:30:56.407Z,9.60
2022-12-24T12:31:56.384Z,9.64
2022-12-24T12:32:56.398Z,9.75
2022-12-24T12:33:56.331Z,9.70
2022-12-24T12:34:56.290Z,9.67
2022-12-24T12:35:56.286Z,9.67
2022-12-24T12:36:56.275Z,9.81
2022-12-24T12:37:56.268Z,9.82
2022-12-24T12:38:56.248Z,9.79
2022-12-24T12:39:56.237Z,9.79
2022-12-24T12:40:56.224Z,9.78
2022-12-24T12:41:56.245Z,9.76
2022-12-24T12:42:56.209Z,9.83
2022-12-24T12:43:56.202Z,9.79
2022-12-24T12:44:56.183Z,9.81
2022-12-24T12:45:56.175Z,9.81
2022-12-24T12:46:56.204Z,9.81
2022-12-24T12:47:56.151Z,9.82
2022-12-24T12:49:02.249Z,9.82
2022-12-24T12:49:57.144Z,9.82
2022-12-24T12:50:56.120Z,9.78
2022-12-24T12:51:56.127Z,9.85
2022-12-24T12:52:56.094Z,9.81
2022-12-24T12:53:56.084Z,9.81
2022-12-24T12:54:56.070Z,9.75
2022-12-24T12:55:56.061Z,9.81
2022-12-24T12:56:56.114Z,9.78
2022-12-24T12:57:56.043Z,9.82
2022-12-24T12:58:56.028Z,9.83
2022-12-24T12:59:56.020Z,9.81
2022-12-24T13:00:56.100Z,9.82
2022-12-24T13:01:56.206Z,9.76
2022-12-24T13:02:56.145Z,9.89
2022-12-24T13:03:55.977Z,9.88
2022-12-24T13:04:55.973Z,9.83
2022-12-24T13:05:55.971Z,9.88
2022-12-24T13:06:55.953Z,9.85
2022-12-24T13:07:55.935Z,9.83
2022-12-24T13:08:55.921Z,9.85
2022-12-24T13:09:55.914Z,9.85
2022-12-24T13:10:55.910Z,9.88
2022-12-24T13:11:55.906Z,9.88
2022-12-24T13:12:55.878Z,9.83
2022-12-24T13:13:55.874Z,9.93
2022-12-24T13:14:55.857Z,9.97
2022-12-24T13:15:55.878Z,9.93
2022-12-24T13:16:55.847Z,9.94
2022-12-24T13:17:55.844Z,9.97